Time;durP1;ratioP1;P1;durP2;ratioP2;P2;SDS_P1;SDS_P2;PMS_P1;PMS_P2;Temp;Humidity;BMP_temperature;BMP_pressure;BME280_temperature;BME280_humidity;BME280_pressure;Samples;Min_cycle;Max_cycle;Signal;HPM_P1;HPM_P2
2023/09/04 00:00:10;;;;;;;24.88;8.68;;;;;;;;;;5009646;28;20050;-58
2023/09/04 00:03:04;;;;;;;31.25;8.73;;;;;;;;;;5007614;28;20149;-59
2023/09/04 00:05:51;;;;;;;39.42;9.30;;;;;;;;;;4999719;28;20058;-59
2023/09/04 00:08:45;;;;;;;28.00;8.80;;;;;;;;;;4987171;28;20062;-58
2023/09/04 00:11:32;;;;;;;28.65;8.95;;;;;;;;;;4988869;28;20474;-58
2023/09/04 00:14:26;;;;;;;24.85;9.07;;;;;;;;;;5000034;28;20192;-58
2023/09/04 00:17:22;;;;;;;31.45;9.05;;;;;;;;;;5004718;28;20050;-60
2023/09/04 00:20:16;;;;;;;26.25;8.75;;;;;;;;;;5004405;28;20137;-60
2023/09/04 00:23:04;;;;;;;32.53;8.55;;;;;;;;;;5003108;28;20054;-60
2023/09/04 00:25:57;;;;;;;28.60;9.07;;;;;;;;;;5004866;28;20049;-51
2023/09/04 00:28:51;;;;;;;30.50;9.15;;;;;;;;;;5004578;28;20133;-51
2023/09/04 00:31:45;;;;;;;30.75;9.48;;;;;;;;;;5006210;28;22211;-48
2023/09/04 00:34:32;;;;;;;25.25;7.72;;;;;;;;;;5003336;28;20045;-50
2023/09/04 00:37:26;;;;;;;33.95;9.50;;;;;;;;;;4988554;28;20108;-51
2023/09/04 00:40:13;;;;;;;29.10;8.98;;;;;;;;;;4999556;28;20046;-49
2023/09/04 00:43:07;;;;;;;20.48;8.18;;;;;;;;;;4987941;28;20098;-51
2023/09/04 00:46:01;;;;;;;28.55;9.85;;;;;;;;;;5007695;28;21622;-57
2023/09/04 00:48:49;;;;;;;29.35;9.05;;;;;;;;;;4998291;28;20126;-57
2023/09/04 00:51:42;;;;;;;26.55;7.80;;;;;;;;;;5001880;28;20058;-56
2023/09/04 00:54:37;;;;;;;34.80;9.73;;;;;;;;;;5000943;28;20056;-57
2023/09/04 00:57:39;;;;;;;29.70;8.52;;;;;;;;;;5005568;28;20112;-59
2023/09/04 01:00:27;;;;;;;21.52;8.38;;;;;;;;;;4992124;28;20584;-59
2023/09/04 01:03:21;;;;;;;29.75;9.05;;;;;;;;;;5005708;28;20052;-59
2023/09/04 01:06:08;;;;;;;28.15;8.13;;;;;;;;;;5001922;28;20056;-59
2023/09/04 01:08:42;;;;;;;30.70;8.90;;;;;;;;;;5004772;28;20053;-60
2023/09/04 01:11:11;;;;;;;35.10;9.23;;;;;;;;;;5001293;28;20129;-59
2023/09/04 01:13:49;;;;;;;29.33;9.25;;;;;;;;;;5004588;28;20097;-60
2023/09/04 01:16:37;;;;;;;29.10;9.68;;;;;;;;;;5002703;28;20121;-64
2023/09/04 01:19:34;;;;;;;30.83;9.32;;;;;;;;;;4992432;28;20411;-63
2023/09/04 01:22:19;;;;;;;25.92;8.98;;;;;;;;;;5004389;28;20058;-63
2023/09/04 01:25:15;;;;;;;36.63;9.27;;;;;;;;;;5006421;28;20045;-63
2023/09/04 01:28:05;;;;;;;36.53;9.88;;;;;;;;;;5003578;28;20053;-64
2023/09/04 01:31:04;;;;;;;34.10;8.63;;;;;;;;;;5003935;28;20060;-59
2023/09/04 01:33:53;;;;;;;36.53;9.75;;;;;;;;;;4991561;28;20061;-52
2023/09/04 01:36:48;;;;;;;37.80;9.02;;;;;;;;;;5000717;28;20576;-52
2023/09/04 01:39:42;;;;;;;34.00;8.95;;;;;;;;;;5004038;28;20054;-51
2023/09/04 01:42:30;;;;;;;29.77;9.07;;;;;;;;;;5005759;28;20505;-50
2023/09/04 01:45:24;;;;;;;25.95;8.27;;;;;;;;;;5005699;28;20587;-52
2023/09/04 01:48:12;;;;;;;36.92;9.93;;;;;;;;;;4999877;28;20145;-48
2023/09/04 01:51:05;;;;;;;30.25;9.52;;;;;;;;;;5003817;28;20049;-61
2023/09/04 01:53:52;;;;;;;30.90;9.40;;;;;;;;;;5006019;28;20050;-61
2023/09/04 01:56:53;;;;;;;35.92;9.20;;;;;;;;;;5012879;28;20053;-61
2023/09/04 01:59:40;;;;;;;38.67;9.98;;;;;;;;;;5022554;28;20046;-52
2023/09/04 02:02:14;;;;;;;26.40;8.30;;;;;;;;;;5011377;28;20057;-49
2023/09/04 02:04:41;;;;;;;34.88;8.55;;;;;;;;;;5025027;28;20140;-50
2023/09/04 02:07:10;;;;;;;27.92;8.70;;;;;;;;;;5018363;28;20509;-48
2023/09/04 02:09:44;;;;;;;36.00;9.48;;;;;;;;;;5022351;28;20407;-47
2023/09/04 02:12:11;;;;;;;32.92;8.45;;;;;;;;;;5022150;28;20041;-49
2023/09/04 02:15:06;;;;;;;34.28;9.25;;;;;;;;;;5016596;28;20054;-52
2023/09/04 02:17:52;;;;;;;27.25;8.93;;;;;;;;;;5020479;28;20049;-60
2023/09/04 02:20:47;;;;;;;34.78;9.10;;;;;;;;;;5018183;28;20457;-56
2023/09/04 02:23:34;;;;;;;36.17;9.70;;;;;;;;;;5021989;28;20041;-57
2023/09/04 02:26:28;;;;;;;35.60;8.90;;;;;;;;;;5015029;28;20865;-57
2023/09/04 02:29:15;;;;;;;34.97;8.45;;;;;;;;;;5024058;28;20058;-57
2023/09/04 02:32:09;;;;;;;29.10;8.43;;;;;;;;;;5025324;28;20065;-56
2023/09/04 02:35:03;;;;;;;31.45;9.00;;;;;;;;;;5012624;28;20080;-57
2023/09/04 02:37:57;;;;;;;34.38;8.57;;;;;;;;;;5024159;28;20099;-53
2023/09/04 02:40:52;;;;;;;31.80;9.23;;;;;;;;;;5026593;28;20049;-46
2023/09/04 02:43:45;;;;;;;30.13;8.38;;;;;;;;;;5025201;28;20052;-48
2023/09/04 02:46:32;;;;;;;30.33;9.38;;;;;;;;;;5020720;28;20504;-51
2023/09/04 02:49:26;;;;;;;39.88;9.10;;;;;;;;;;5023418;28;20571;-53
2023/09/04 02:52:14;;;;;;;39.67;9.23;;;;;;;;;;5018045;28;20413;-49
2023/09/04 02:55:21;;;;;;;30.33;8.63;;;;;;;;;;5018916;28;20100;-50
2023/09/04 02:58:08;;;;;;;32.83;9.60;;;;;;;;;;4995865;28;20061;-49
2023/09/04 03:01:02;;;;;;;34.72;8.73;;;;;;;;;;5001540;28;20120;-48
2023/09/04 03:03:49;;;;;;;33.47;8.18;;;;;;;;;;5000987;28;20089;-63
2023/09/04 03:06:43;;;;;;;33.33;9.18;;;;;;;;;;5002937;28;20139;-59
2023/09/04 03:09:31;;;;;;;32.85;9.63;;;;;;;;;;5001713;28;20053;-62
2023/09/04 03:12:25;;;;;;;31.70;8.40;;;;;;;;;;5001762;28;20046;-63
2023/09/04 03:15:12;;;;;;;26.63;9.02;;;;;;;;;;4999051;28;20050;-63
2023/09/04 03:18:06;;;;;;;28.58;9.05;;;;;;;;;;5002666;28;20446;-63
2023/09/04 03:20:55;;;;;;;29.05;7.90;;;;;;;;;;4999692;28;20061;-63
2023/09/04 03:23:51;;;;;;;35.28;8.85;;;;;;;;;;4993639;28;20054;-58
2023/09/04 03:26:37;;;;;;;28.45;8.80;;;;;;;;;;4996653;28;20477;-58
2023/09/04 03:29:30;;;;;;;38.28;9.52;;;;;;;;;;4993925;28;20112;-58
2023/09/04 03:32:17;;;;;;;32.40;9.07;;;;;;;;;;5000083;28;20469;-58
2023/09/04 03:35:16;;;;;;;28.70;8.98;;;;;;;;;;4997556;28;20669;-63
2023/09/04 03:37:59;;;;;;;33.70;9.38;;;;;;;;;;4997679;28;20058;-63
2023/09/04 03:40:53;;;;;;;43.28;9.30;;;;;;;;;;4998127;28;20096;-64
2023/09/04 03:43:46;;;;;;;40.95;9.50;;;;;;;;;;4998889;28;20054;-63
2023/09/04 03:46:33;;;;;;;34.15;8.73;;;;;;;;;;5002340;28;20064;-63
2023/09/04 03:49:27;;;;;;;29.80;8.05;;;;;;;;;;4994620;28;20058;-63
2023/09/04 03:52:14;;;;;;;36.55;8.88;;;;;;;;;;5004481;28;20719;-61
2023/09/04 03:55:21;;;;;;;29.58;8.60;;;;;;;;;;5001297;28;20086;-60
2023/09/04 03:58:10;;;;;;;27.30;8.90;;;;;;;;;;5001079;28;20074;-59
2023/09/04 04:01:04;;;;;;;32.05;8.40;;;;;;;;;;5000730;28;20057;-59
2023/09/04 04:03:52;;;;;;;33.22;8.18;;;;;;;;;;5000803;28;20045;-58
2023/09/04 04:06:45;;;;;;;26.58;8.07;;;;;;;;;;5005164;28;20057;-58
2023/09/04 04:09:32;;;;;;;27.65;8.32;;;;;;;;;;5008911;28;20045;-46
2023/09/04 04:12:26;;;;;;;37.03;9.07;;;;;;;;;;5006079;28;20041;-51
2023/09/04 04:15:04;;;;;;;35.90;8.82;;;;;;;;;;5002340;28;20062;-52
2023/09/04 04:17:39;;;;;;;31.55;8.68;;;;;;;;;;5000396;28;20068;-51
2023/09/04 04:20:10;;;;;;;24.08;8.48;;;;;;;;;;5007516;28;20065;-51
2023/09/04 04:22:37;;;;;;;25.33;8.02;;;;;;;;;;5005238;28;20050;-52
2023/09/04 04:25:31;;;;;;;29.20;8.05;;;;;;;;;;5000280;28;20659;-48
2023/09/04 04:28:22;;;;;;;38.55;8.38;;;;;;;;;;5001490;28;20053;-62
2023/09/04 04:31:16;;;;;;;31.65;8.43;;;;;;;;;;5005955;28;20057;-62
2023/09/04 04:34:03;;;;;;;24.63;8.10;;;;;;;;;;5005301;28;20042;-62
2023/09/04 04:36:59;;;;;;;30.02;7.70;;;;;;;;;;5005224;28;20133;-62
2023/09/04 04:39:45;;;;;;;32.55;8.35;;;;;;;;;;5002990;28;20481;-61
2023/09/04 04:42:38;;;;;;;30.20;8.00;;;;;;;;;;4994309;28;20054;-63
2023/09/04 04:45:06;;;;;;;35.67;7.93;;;;;;;;;;5002933;28;20053;-62
2023/09/04 04:48:01;;;;;;;30.25;7.55;;;;;;;;;;5003793;28;20421;-62
2023/09/04 04:50:46;;;;;;;30.52;7.40;;;;;;;;;;5002887;28;20061;-63
2023/09/04 04:53:40;;;;;;;25.73;7.70;;;;;;;;;;5002528;28;20139;-62
2023/09/04 04:56:34;;;;;;;33.80;7.80;;;;;;;;;;5010490;28;20050;-59
2023/09/04 04:59:34;;;;;;;26.30;7.72;;;;;;;;;;5017183;28;20575;-59
2023/09/04 05:02:21;;;;;;;24.52;6.53;;;;;;;;;;5026530;28;20058;-59
2023/09/04 05:05:15;;;;;;;34.47;8.02;;;;;;;;;;5024913;28;20057;-59
2023/09/04 05:08:02;;;;;;;34.17;7.15;;;;;;;;;;5021084;28;20147;-60
2023/09/04 05:11:03;;;;;;;28.85;7.88;;;;;;;;;;5014742;28;20540;-62
2023/09/04 05:13:51;;;;;;;22.88;6.88;;;;;;;;;;5016129;28;20144;-62
2023/09/04 05:16:44;;;;;;;28.52;8.57;;;;;;;;;;5025915;28;20065;-62
2023/09/04 05:19:32;;;;;;;29.65;8.20;;;;;;;;;;5004030;28;20131;-61
2023/09/04 05:22:26;;;;;;;28.73;7.40;;;;;;;;;;5022503;28;20085;-62
2023/09/04 05:25:13;;;;;;;28.50;7.25;;;;;;;;;;5009954;28;20057;-62
2023/09/04 05:28:06;;;;;;;27.23;7.60;;;;;;;;;;5012539;28;20057;-62
2023/09/04 05:30:53;;;;;;;27.23;7.40;;;;;;;;;;5013702;28;20056;-62
2023/09/04 05:33:47;;;;;;;37.03;8.18;;;;;;;;;;5017350;28;20873;-62
2023/09/04 05:36:34;;;;;;;28.02;7.20;;;;;;;;;;5020489;28;20054;-58
2023/09/04 05:39:28;;;;;;;30.02;8.27;;;;;;;;;;5015092;28;20441;-63
2023/09/04 05:42:16;;;;;;;29.25;7.50;;;;;;;;;;5021977;28;20425;-63
2023/09/04 05:45:09;;;;;;;31.33;7.80;;;;;;;;;;5018591;28;20926;-63
2023/09/04 05:48:06;;;;;;;37.88;8.65;;;;;;;;;;5007775;28;20072;-63
2023/09/04 05:50:58;;;;;;;36.47;7.50;;;;;;;;;;5013688;28;20062;-63
2023/09/04 05:53:45;;;;;;;35.08;9.20;;;;;;;;;;5018303;28;20061;-60
2023/09/04 05:56:46;;;;;;;27.35;8.02;;;;;;;;;;5014763;28;20104;-61
2023/09/04 05:59:40;;;;;;;32.67;8.45;;;;;;;;;;5003719;28;20140;-61
2023/09/04 06:02:40;;;;;;;34.30;8.05;;;;;;;;;;5006761;28;20061;-61
2023/09/04 06:05:34;;;;;;;32.35;8.98;;;;;;;;;;5004974;28;20050;-62
2023/09/04 06:08:22;;;;;;;43.45;8.07;;;;;;;;;;5008330;28;20089;-52
2023/09/04 06:11:16;;;;;;;28.50;8.07;;;;;;;;;;5008373;28;20064;-48
2023/09/04 06:14:03;;;;;;;33.72;8.05;;;;;;;;;;5003590;28;20049;-49
2023/09/04 06:16:56;;;;;;;31.60;7.82;;;;;;;;;;5007069;28;20092;-51
2023/09/04 06:19:44;;;;;;;27.10;7.28;;;;;;;;;;4996348;28;20054;-51
2023/09/04 06:22:37;;;;;;;28.23;7.20;;;;;;;;;;5002249;28;20144;-63
2023/09/04 06:25:25;;;;;;;30.13;6.70;;;;;;;;;;4996687;28;20046;-64
2023/09/04 06:28:18;;;;;;;23.20;6.50;;;;;;;;;;5001493;28;20061;-63
2023/09/04 06:31:06;;;;;;;30.15;6.90;;;;;;;;;;5007748;28;20476;-63
2023/09/04 06:33:59;;;;;;;32.88;7.28;;;;;;;;;;5005261;28;20050;-57
2023/09/04 06:36:53;;;;;;;23.90;6.78;;;;;;;;;;5007733;28;20049;-58
2023/09/04 06:39:41;;;;;;;27.27;6.85;;;;;;;;;;5007561;28;20082;-56
2023/09/04 06:42:34;;;;;;;31.58;6.97;;;;;;;;;;5004690;28;20058;-58
2023/09/04 06:45:22;;;;;;;26.83;6.70;;;;;;;;;;5004556;28;20502;-58
2023/09/04 06:48:15;;;;;;;32.47;6.57;;;;;;;;;;5002400;28;20481;-55
2023/09/04 06:51:09;;;;;;;30.27;5.97;;;;;;;;;;5007495;28;20068;-59
2023/09/04 06:53:56;;;;;;;21.20;6.57;;;;;;;;;;5007737;28;20112;-53
2023/09/04 06:56:57;;;;;;;29.65;7.43;;;;;;;;;;5008702;28;20053;-53
2023/09/04 06:59:52;;;;;;;36.35;7.57;;;;;;;;;;5004199;28;20917;-54
2023/09/04 07:02:44;;;;;;;37.72;7.68;;;;;;;;;;5003667;28;20502;-54
2023/09/04 07:05:39;;;;;;;32.13;6.57;;;;;;;;;;5003114;28;20050;-50
2023/09/04 07:08:26;;;;;;;29.38;7.07;;;;;;;;;;5007798;28;21677;-50
2023/09/04 07:11:19;;;;;;;26.05;6.60;;;;;;;;;;5005182;28;20064;-49
2023/09/04 07:14:13;;;;;;;35.70;6.75;;;;;;;;;;5003158;28;20514;-53
2023/09/04 07:17:07;;;;;;;34.33;7.28;;;;;;;;;;5004592;28;20049;-48
2023/09/04 07:19:55;;;;;;;29.35;7.82;;;;;;;;;;5003634;28;20053;-59
2023/09/04 07:22:48;;;;;;;32.72;6.85;;;;;;;;;;4990890;28;20667;-59
2023/09/04 07:25:56;;;;;;;29.08;5.90;;;;;;;;;;5001122;28;20053;-59
2023/09/04 07:28:50;;;;;;;31.05;6.40;;;;;;;;;;5003038;28;20069;-58
2023/09/04 07:31:37;;;;;;;22.63;6.03;;;;;;;;;;5000324;28;20140;-59
2023/09/04 07:34:30;;;;;;;23.60;5.57;;;;;;;;;;5000762;28;20555;-59
2023/09/04 07:37:17;;;;;;;25.20;5.70;;;;;;;;;;5004557;28;20049;-62
2023/09/04 07:40:11;;;;;;;20.95;5.60;;;;;;;;;;5005271;28;20046;-62
2023/09/04 07:42:59;;;;;;;24.27;5.50;;;;;;;;;;5005789;28;20523;-63
2023/09/04 07:45:54;;;;;;;30.98;6.03;;;;;;;;;;5009280;28;20049;-62
2023/09/04 07:48:40;;;;;;;25.45;6.15;;;;;;;;;;5006458;28;20110;-60
2023/09/04 07:51:33;;;;;;;24.25;5.55;;;;;;;;;;5006166;28;20073;-62
2023/09/04 07:54:21;;;;;;;26.60;5.80;;;;;;;;;;5005421;28;20081;-62
2023/09/04 07:57:14;;;;;;;25.80;5.70;;;;;;;;;;4997863;28;20054;-62
2023/09/04 08:00:21;;;;;;;21.45;5.72;;;;;;;;;;4995401;28;20057;-61
2023/09/04 08:03:04;;;;;;;20.83;5.65;;;;;;;;;;5005437;28;20101;-62
2023/09/04 08:05:56;;;;;;;22.60;5.28;;;;;;;;;;5009701;28;20057;-59
2023/09/04 08:08:43;;;;;;;20.73;5.05;;;;;;;;;;5012285;28;20663;-59
2023/09/04 08:11:37;;;;;;;17.17;5.05;;;;;;;;;;5013303;28;20469;-59
2023/09/04 08:14:25;;;;;;;20.23;4.93;;;;;;;;;;5007785;28;20192;-59
2023/09/04 08:17:18;;;;;;;21.58;5.22;;;;;;;;;;5010730;28;20099;-61
2023/09/04 08:20:13;;;;;;;19.48;5.28;;;;;;;;;;5004684;28;20056;-60
2023/09/04 08:23:00;;;;;;;19.90;5.30;;;;;;;;;;5004367;28;20054;-58
2023/09/04 08:26:03;;;;;;;20.10;5.53;;;;;;;;;;5004699;28;20069;-58
2023/09/04 08:28:50;;;;;;;13.77;4.55;;;;;;;;;;5003271;28;20148;-59
2023/09/04 08:31:45;;;;;;;18.20;4.65;;;;;;;;;;5004054;28;20053;-59
2023/09/04 08:34:32;;;;;;;19.95;4.72;;;;;;;;;;5002060;28;20050;-59
2023/09/04 08:37:25;;;;;;;14.13;4.45;;;;;;;;;;5005183;28;20054;-59
2023/09/04 08:40:19;;;;;;;16.90;4.57;;;;;;;;;;4998779;28;20058;-58
2023/09/04 08:43:10;;;;;;;16.73;4.32;;;;;;;;;;4997743;28;20061;-58
2023/09/04 08:46:05;;;;;;;18.30;4.63;;;;;;;;;;4999539;28;20038;-60
2023/09/04 08:48:53;;;;;;;22.80;4.75;;;;;;;;;;4997860;28;20054;-61
2023/09/04 08:51:47;;;;;;;10.77;3.90;;;;;;;;;;5005705;28;20057;-61
2023/09/04 08:54:34;;;;;;;15.25;4.03;;;;;;;;;;5002097;28;20149;-61
2023/09/04 08:57:34;;;;;;;16.95;3.85;;;;;;;;;;5000144;28;20065;-61
2023/09/04 09:00:21;;;;;;;18.10;4.03;;;;;;;;;;5008517;28;20053;-61
2023/09/04 09:03:16;;;;;;;16.63;3.47;;;;;;;;;;5008832;28;20065;-58
2023/09/04 09:06:09;;;;;;;11.02;3.80;;;;;;;;;;5007304;28;20041;-58
2023/09/04 09:09:03;;;;;;;15.57;3.72;;;;;;;;;;5008742;28;20053;-58
2023/09/04 09:11:54;;;;;;;13.50;3.50;;;;;;;;;;5011125;28;20053;-58
2023/09/04 09:14:44;;;;;;;15.38;3.63;;;;;;;;;;5005793;28;20057;-61
2023/09/04 09:17:31;;;;;;;18.15;3.70;;;;;;;;;;5007180;28;20057;-57
2023/09/04 09:20:09;;;;;;;14.63;3.92;;;;;;;;;;5005596;28;20049;-58
2023/09/04 09:22:37;;;;;;;10.93;3.22;;;;;;;;;;5009462;28;20053;-58
2023/09/04 09:25:04;;;;;;;;;;;;;;;;;;5006749;28;20133;-58
2023/09/04 09:27:41;;;;;;;15.10;3.55;;;;;;;;;;5007276;28;19925;-57
2023/09/04 09:30:08;;;;;;;11.40;3.50;;;;;;;;;;5005873;28;20120;-57
2023/09/04 09:32:43;;;;;;;11.35;3.33;;;;;;;;;;5005595;28;20241;-53
2023/09/04 09:35:10;;;;;;;13.70;3.55;;;;;;;;;;5002919;28;20045;-51
2023/09/04 09:37:37;;;;;;;16.30;3.97;;;;;;;;;;5005207;28;20068;-51
2023/09/04 09:40:12;;;;;;;11.68;3.30;;;;;;;;;;5004812;28;20049;-49
2023/09/04 09:42:39;;;;;;;;;;;;;;;;;;5006190;28;20128;-60
2023/09/04 09:45:13;;;;;;;14.85;3.90;;;;;;;;;;5006818;28;19975;-60
2023/09/04 09:47:41;;;;;;;14.25;3.35;;;;;;;;;;5007028;28;20497;-61
2023/09/04 09:50:08;;;;;;;13.43;3.97;;;;;;;;;;5003917;28;20988;-60
2023/09/04 09:52:58;;;;;;;16.90;4.05;;;;;;;;;;5005069;28;20053;-60
2023/09/04 09:55:26;;;;;;;11.30;3.50;;;;;;;;;;4984225;28;20087;-61
2023/09/04 09:58:07;;;;;;;10.93;3.67;;;;;;;;;;5015715;28;20670;-60
2023/09/04 10:00:34;;;;;;;13.50;3.88;;;;;;;;;;5007001;28;20062;-61
2023/09/04 10:03:08;;;;;;;12.10;3.65;;;;;;;;;;5023769;28;20084;-61
2023/09/04 10:05:36;;;;;;;11.15;3.95;;;;;;;;;;5026115;28;20053;-61
2023/09/04 10:08:03;;;;;;;10.27;2.90;;;;;;;;;;5014540;28;20070;-61
2023/09/04 10:10:40;;;;;;;13.10;3.97;;;;;;;;;;5017531;28;20542;-59
2023/09/04 10:13:17;;;;;;;13.23;3.50;;;;;;;;;;5017908;28;20622;-61
2023/09/04 10:15:52;;;;;;;9.65;3.35;;;;;;;;;;5013710;28;20077;-61
2023/09/04 10:18:33;;;;;;;11.38;3.60;;;;;;;;;;5023589;28;20056;-61
2023/09/04 10:21:09;;;;;;;13.32;4.03;;;;;;;;;;5015475;28;20053;-61
2023/09/04 10:23:40;;;;;;;17.98;4.13;;;;;;;;;;5023812;28;20501;-64
2023/09/04 10:26:23;;;;;;;14.60;3.58;;;;;;;;;;5006085;28;20494;-61
2023/09/04 10:28:58;;;;;;;12.25;3.80;;;;;;;;;;5007123;28;20584;-57
2023/09/04 10:31:34;;;;;;;12.52;3.13;;;;;;;;;;5011982;28;20056;-58
2023/09/04 10:34:02;;;;;;;11.20;3.50;;;;;;;;;;5010088;28;20509;-58
2023/09/04 10:36:30;;;;;;;12.45;3.58;;;;;;;;;;5023016;28;20873;-57
2023/09/04 10:39:06;;;;;;;18.17;4.18;;;;;;;;;;5023157;28;20501;-57
2023/09/04 10:41:35;;;;;;;13.05;3.58;;;;;;;;;;5018073;28;20095;-51
2023/09/04 10:44:02;;;;;;;17.60;4.13;;;;;;;;;;5024995;28;20078;-52
2023/09/04 10:46:38;;;;;;;15.40;4.05;;;;;;;;;;5025307;28;20059;-52
2023/09/04 10:49:05;;;;;;;11.30;3.88;;;;;;;;;;5020977;28;20527;-49
2023/09/04 10:51:39;;;;;;;12.95;3.28;;;;;;;;;;5017205;28;21041;-52
2023/09/04 10:54:06;;;;;;;;;;;;;;;;;;5017474;28;20133;-50
2023/09/04 10:57:00;;;;;;;15.23;3.58;;;;;;;;;;5021181;28;19987;-60
2023/09/04 10:59:53;;;;;;;12.45;3.33;;;;;;;;;;5012602;28;20046;-60
2023/09/04 11:02:29;;;;;;;14.15;3.38;;;;;;;;;;5012990;28;20569;-60
2023/09/04 11:04:57;;;;;;;10.98;3.67;;;;;;;;;;5022355;28;20505;-60
2023/09/04 11:07:25;;;;;;;13.07;3.58;;;;;;;;;;5011664;28;21167;-47
2023/09/04 11:10:02;;;;;;;10.32;3.40;;;;;;;;;;5019127;28;20049;-57
2023/09/04 11:12:50;;;;;;;12.02;3.30;;;;;;;;;;5020928;28;20508;-57
2023/09/04 11:15:44;;;;;;;12.18;3.53;;;;;;;;;;5014893;28;20061;-57
2023/09/04 11:18:38;;;;;;;16.67;3.42;;;;;;;;;;5011204;28;20421;-56
2023/09/04 11:21:33;;;;;;;14.70;3.75;;;;;;;;;;5015641;28;20076;-57
2023/09/04 11:24:22;;;;;;;15.48;3.70;;;;;;;;;;5014172;28;20053;-52
2023/09/04 11:27:14;;;;;;;10.25;3.88;;;;;;;;;;5012506;28;20120;-46
2023/09/04 11:30:08;;;;;;;16.17;3.95;;;;;;;;;;5023598;28;20057;-50
2023/09/04 11:33:02;;;;;;;13.70;4.05;;;;;;;;;;5019338;28;20057;-45
2023/09/04 11:35:59;;;;;;;13.27;3.65;;;;;;;;;;5021000;28;20057;-59
2023/09/04 11:39:06;;;;;;;16.58;4.05;;;;;;;;;;5018441;28;20065;-50
2023/09/04 11:41:53;;;;;;;12.93;3.55;;;;;;;;;;5016795;28;20060;-50
2023/09/04 11:44:48;;;;;;;10.25;3.15;;;;;;;;;;5012196;28;20077;-51
2023/09/04 11:47:35;;;;;;;14.23;3.88;;;;;;;;;;5013290;28;20073;-50
2023/09/04 11:50:28;;;;;;;14.13;3.38;;;;;;;;;;5020809;28;20113;-48
2023/09/04 11:53:15;;;;;;;11.65;3.85;;;;;;;;;;5022712;28;20452;-61
2023/09/04 11:56:23;;;;;;;18.17;3.75;;;;;;;;;;5019057;28;20513;-61
2023/09/04 11:59:18;;;;;;;15.50;4.13;;;;;;;;;;5016994;28;20049;-61
2023/09/04 12:02:12;;;;;;;11.10;3.85;;;;;;;;;;5020569;28;20049;-61
2023/09/04 12:05:00;;;;;;;14.38;3.58;;;;;;;;;;5020260;28;20053;-60
2023/09/04 12:07:53;;;;;;;10.10;3.33;;;;;;;;;;5008496;28;20780;-60
2023/09/04 12:10:40;;;;;;;11.05;3.25;;;;;;;;;;5022187;28;20107;-61
2023/09/04 12:13:35;;;;;;;12.25;3.88;;;;;;;;;;5010033;28;20557;-61
2023/09/04 12:16:22;;;;;;;11.90;3.80;;;;;;;;;;5004999;28;20068;-60
2023/09/04 12:19:17;;;;;;;11.07;3.53;;;;;;;;;;5020610;28;20068;-60
2023/09/04 12:22:13;;;;;;;10.75;3.67;;;;;;;;;;5015938;28;20395;-50
2023/09/04 12:25:08;;;;;;;13.10;4.10;;;;;;;;;;5017633;28;20053;-50
2023/09/04 12:27:55;;;;;;;12.45;3.80;;;;;;;;;;5007459;28;20068;-51
2023/09/04 12:30:50;;;;;;;12.98;3.80;;;;;;;;;;5025190;28;20057;-50
2023/09/04 12:33:39;;;;;;;14.95;3.80;;;;;;;;;;5015228;28;20045;-52
2023/09/04 12:36:34;;;;;;;13.65;3.70;;;;;;;;;;5025046;28;20057;-61
2023/09/04 12:39:21;;;;;;;10.60;3.72;;;;;;;;;;5016038;28;20058;-60
2023/09/04 12:42:14;;;;;;;13.50;4.20;;;;;;;;;;5011894;28;20054;-60
2023/09/04 12:45:09;;;;;;;13.35;3.30;;;;;;;;;;5016810;28;20054;-60
2023/09/04 12:48:04;;;;;;;11.60;4.10;;;;;;;;;;5016456;28;20056;-61
2023/09/04 12:50:50;;;;;;;10.95;3.95;;;;;;;;;;5021209;28;20062;-61
2023/09/04 12:53:44;;;;;;;14.05;4.15;;;;;;;;;;5016959;28;20042;-60
2023/09/04 12:56:38;;;;;;;12.93;4.32;;;;;;;;;;5016107;28;20073;-60
2023/09/04 12:59:38;;;;;;;20.55;4.20;;;;;;;;;;5023847;28;20141;-60
2023/09/04 13:02:25;;;;;;;13.20;4.28;;;;;;;;;;5022883;28;20104;-57
2023/09/04 13:05:21;;;;;;;19.15;4.32;;;;;;;;;;5022360;28;20080;-57
2023/09/04 13:08:14;;;;;;;15.82;4.50;;;;;;;;;;5020015;28;20053;-57
2023/09/04 13:11:02;;;;;;;12.43;4.35;;;;;;;;;;5025078;28;20053;-57
2023/09/04 13:13:55;;;;;;;14.38;4.47;;;;;;;;;;5026077;28;20572;-57
2023/09/04 13:16:43;;;;;;;14.25;4.32;;;;;;;;;;5008930;28;20058;-55
2023/09/04 13:19:36;;;;;;;17.00;4.72;;;;;;;;;;5013345;28;20057;-55
2023/09/04 13:22:24;;;;;;;13.57;5.07;;;;;;;;;;5017204;28;20116;-57
2023/09/04 13:25:18;;;;;;;13.95;4.68;;;;;;;;;;5020193;28;20064;-56
2023/09/04 13:28:13;;;;;;;14.05;4.63;;;;;;;;;;5021549;28;20045;-59
2023/09/04 13:31:06;;;;;;;12.82;4.35;;;;;;;;;;5019250;28;20056;-60
2023/09/04 13:33:54;;;;;;;13.73;4.32;;;;;;;;;;5027845;28;20092;-59
2023/09/04 13:36:47;;;;;;;12.30;4.50;;;;;;;;;;5027773;28;20060;-60
2023/09/04 13:39:35;;;;;;;10.77;4.50;;;;;;;;;;5022415;28;20061;-60
2023/09/04 13:42:28;;;;;;;13.63;4.18;;;;;;;;;;5024586;28;20115;-59
2023/09/04 13:45:16;;;;;;;14.57;4.60;;;;;;;;;;5024916;28;20528;-60
2023/09/04 13:47:49;;;;;;;14.60;4.70;;;;;;;;;;5012823;28;20060;-60
2023/09/04 13:50:24;;;;;;;18.58;4.97;;;;;;;;;;5021729;28;20147;-59
2023/09/04 13:52:51;;;;;;;13.27;4.60;;;;;;;;;;5006383;28;20084;-59
2023/09/04 13:55:26;;;;;;;11.75;4.40;;;;;;;;;;5022302;28;20045;-60
2023/09/04 13:57:59;;;;;;;13.07;4.00;;;;;;;;;;5007702;28;20176;-59
2023/09/04 14:01:09;;;;;;;9.45;3.97;;;;;;;;;;5002213;28;20155;-52
2023/09/04 14:04:03;;;;;;;14.65;4.43;;;;;;;;;;4999788;28;20065;-51
2023/09/04 14:06:55;;;;;;;12.75;4.00;;;;;;;;;;5003323;28;20054;-52
2023/09/04 14:09:42;;;;;;;11.48;3.80;;;;;;;;;;4998188;28;20588;-50
2023/09/04 14:12:36;;;;;;;13.68;4.20;;;;;;;;;;4997715;28;20069;-50
2023/09/04 14:15:23;;;;;;;11.15;4.00;;;;;;;;;;4997226;28;20053;-56
2023/09/04 14:18:17;;;;;;;12.85;4.22;;;;;;;;;;5000113;28;20049;-48
2023/09/04 14:21:10;;;;;;;14.07;4.28;;;;;;;;;;4996611;28;20046;-60
2023/09/04 14:24:05;;;;;;;8.90;3.50;;;;;;;;;;4989807;28;20236;-60
2023/09/04 14:26:52;;;;;;;16.08;4.00;;;;;;;;;;4996867;28;20049;-60
2023/09/04 14:29:45;;;;;;;13.90;4.22;;;;;;;;;;4996008;28;20093;-60
2023/09/04 14:32:34;;;;;;;14.10;4.15;;;;;;;;;;5002677;28;20049;-61
2023/09/04 14:35:27;;;;;;;19.17;5.00;;;;;;;;;;5002416;28;20049;-60
2023/09/04 14:38:14;;;;;;;13.63;4.20;;;;;;;;;;5003471;28;20064;-59
2023/09/04 14:41:28;;;;;;;13.93;3.85;;;;;;;;;;5005508;28;20101;-59
2023/09/04 14:44:16;;;;;;;15.52;4.43;;;;;;;;;;5005432;28;20115;-61
2023/09/04 14:47:12;;;;;;;9.77;3.90;;;;;;;;;;5002975;28;20136;-46
2023/09/04 14:49:59;;;;;;;12.88;4.15;;;;;;;;;;5004189;28;20097;-50
2023/09/04 14:52:53;;;;;;;19.48;4.60;;;;;;;;;;5004368;28;20061;-50
2023/09/04 14:55:40;;;;;;;12.93;4.28;;;;;;;;;;4998376;28;20053;-49
2023/09/04 14:58:40;;;;;;;16.60;4.93;;;;;;;;;;5021864;28;20053;-48
2023/09/04 15:01:28;;;;;;;15.40;4.63;;;;;;;;;;5027536;28;20106;-51
2023/09/04 15:04:25;;;;;;;17.00;4.80;;;;;;;;;;5023774;28;20061;-51
2023/09/04 15:07:12;;;;;;;18.52;4.72;;;;;;;;;;5023881;28;20498;-49
2023/09/04 15:10:06;;;;;;;16.83;4.68;;;;;;;;;;5022741;28;20088;-50
2023/09/04 15:12:54;;;;;;;16.08;4.22;;;;;;;;;;5022444;28;20054;-58
2023/09/04 15:15:48;;;;;;;13.55;4.45;;;;;;;;;;5024695;28;20127;-60
2023/09/04 15:18:35;;;;;;;12.35;4.20;;;;;;;;;;5019517;28;20055;-59
2023/09/04 15:21:29;;;;;;;13.93;4.50;;;;;;;;;;5023835;28;20053;-60
2023/09/04 15:24:16;;;;;;;15.10;3.97;;;;;;;;;;5020538;28;20078;-59
2023/09/04 15:27:09;;;;;;;13.63;4.32;;;;;;;;;;5019992;28;20064;-60
2023/09/04 15:30:03;;;;;;;13.85;4.22;;;;;;;;;;5020801;28;20054;-59
2023/09/04 15:32:58;;;;;;;16.98;4.30;;;;;;;;;;5022221;28;20152;-61
2023/09/04 15:35:47;;;;;;;13.30;3.58;;;;;;;;;;5020979;28;20105;-60
2023/09/04 15:38:40;;;;;;;13.63;3.72;;;;;;;;;;5021263;28;20140;-60
2023/09/04 15:41:26;;;;;;;12.35;4.07;;;;;;;;;;5020928;28;20071;-56
2023/09/04 15:44:20;;;;;;;18.10;4.15;;;;;;;;;;5021190;28;20113;-60
2023/09/04 15:47:13;;;;;;;13.95;3.92;;;;;;;;;;5026987;28;20050;-60
2023/09/04 15:50:01;;;;;;;10.27;3.40;;;;;;;;;;5021403;28;20046;-60
2023/09/04 15:52:54;;;;;;;11.25;3.65;;;;;;;;;;5019867;28;20147;-60
2023/09/04 15:55:54;;;;;;;11.25;3.38;;;;;;;;;;5018021;28;20053;-60
2023/09/04 15:58:35;;;;;;;9.82;3.28;;;;;;;;;;5003009;28;20116;-60
2023/09/04 16:01:03;;;;;;;11.75;3.80;;;;;;;;;;4997857;28;20063;-60
2023/09/04 16:03:56;;;;;;;15.30;3.65;;;;;;;;;;5001209;28;20839;-60
2023/09/04 16:06:44;;;;;;;10.10;3.00;;;;;;;;;;5005507;28;20568;-59
2023/09/04 16:09:37;;;;;;;12.98;3.90;;;;;;;;;;5006174;28;20773;-46
2023/09/04 16:12:25;;;;;;;9.93;3.42;;;;;;;;;;5000913;28;20073;-64
2023/09/04 16:15:18;;;;;;;12.15;3.65;;;;;;;;;;5001069;28;20105;-63
2023/09/04 16:18:13;;;;;;;11.20;3.17;;;;;;;;;;5001070;28;20561;-63
2023/09/04 16:21:06;;;;;;;10.73;3.15;;;;;;;;;;5001784;28;20049;-64
2023/09/04 16:23:54;;;;;;;12.65;3.63;;;;;;;;;;5001643;28;20178;-64
2023/09/04 16:26:48;;;;;;;9.32;2.88;;;;;;;;;;5003556;28;20045;-64
2023/09/04 16:29:43;;;;;;;12.43;3.83;;;;;;;;;;5005002;28;20062;-63
2023/09/04 16:32:37;;;;;;;12.05;3.10;;;;;;;;;;5002519;28;20963;-64
2023/09/04 16:35:25;;;;;;;10.20;2.70;;;;;;;;;;4996489;28;20149;-64